Chapais, Canada
Current Conditions -  °F | °C
As of 10:14 AM on Monday 22 Dec 2014 (Local Time) from CYNM Reporting Station
Overcast Overcast  
Wind Chill: 10°   Ceiling: 3800
Heat Index: 21°   Visibility: 9mi
Dew Point: 19°   Wind: 10mph
Humidity: 93%   Direction: 180°S
Pressure: 30.2"   Gusts: NA
Location:  49.78°N, 74.85°W
Report Text: CYNM 221514Z AUTO 18009KT 9SM OVC038 M06/M07 A3020 RMK ICG PAST HR SLP250
Loading
Personal Weather Stations






























Interactive Weather Map New forecast layout! Learn more

10-Day Weather Forecast

Advertisements
Track Severe Weather on mobile